createdAt,value
2023-02-28T00:00:18.780Z,-2.29
2023-02-28T00:02:45.995Z,-2.34
2023-02-28T00:05:14.643Z,-2.42
2023-02-28T00:07:43.029Z,-2.58
2023-02-28T00:10:12.253Z,-2.57
2023-02-28T00:12:39.103Z,-2.48
2023-02-28T00:15:10.781Z,-2.51
2023-02-28T00:17:38.238Z,-2.62
2023-02-28T00:20:09.338Z,-2.70
2023-02-28T00:22:36.053Z,-2.72
2023-02-28T00:25:02.776Z,-2.73
2023-02-28T00:27:29.461Z,-2.81
2023-02-28T00:29:56.108Z,-2.73
2023-02-28T00:32:23.014Z,-2.81
2023-02-28T00:34:49.847Z,-2.78
2023-02-28T00:37:16.570Z,-2.84
2023-02-28T00:39:43.436Z,-2.85
2023-02-28T00:42:10.517Z,-2.96
2023-02-28T00:44:37.275Z,-3.01
2023-02-28T00:47:04.005Z,-3.01
2023-02-28T00:49:30.668Z,-2.99
2023-02-28T00:51:57.918Z,-2.96
2023-02-28T00:54:25.100Z,-3.09
2023-02-28T00:56:51.789Z,-3.07
2023-02-28T00:59:18.690Z,-2.99
2023-02-28T01:01:46.858Z,-2.99
2023-02-28T01:04:14.129Z,-3.06
2023-02-28T01:06:41.541Z,-2.96
2023-02-28T01:09:08.827Z,-3.01
2023-02-28T01:11:35.939Z,-3.00
2023-02-28T01:14:03.119Z,-3.04
2023-02-28T01:16:29.902Z,-3.15
2023-02-28T01:18:56.876Z,-3.14
2023-02-28T01:21:24.167Z,-3.18
2023-02-28T01:23:51.115Z,-3.10
2023-02-28T01:26:23.162Z,-3.07
2023-02-28T01:28:50.772Z,-3.08
2023-02-28T01:31:17.857Z,-3.14
2023-02-28T01:33:44.712Z,-3.23
2023-02-28T01:36:30.228Z,-3.16
2023-02-28T01:38:57.155Z,-3.26
2023-02-28T01:41:30.150Z,-3.27
2023-02-28T01:44:08.904Z,-3.28
2023-02-28T01:46:36.749Z,-3.35
2023-02-28T01:49:08.727Z,-3.43
2023-02-28T01:51:51.727Z,-3.43
2023-02-28T01:54:23.020Z,-3.50
2023-02-28T01:57:00.465Z,-3.47
2023-02-28T01:59:47.421Z,-3.63
2023-02-28T02:02:15.416Z,-3.76
2023-02-28T02:04:50.779Z,-3.75
2023-02-28T02:07:17.676Z,-3.80
2023-02-28T02:09:44.376Z,-3.79
2023-02-28T02:12:37.984Z,-3.78
2023-02-28T02:15:14.676Z,-3.67
2023-02-28T02:17:49.403Z,-3.79
2023-02-28T02:20:47.136Z,-3.74
2023-02-28T02:23:38.729Z,-3.71
2023-02-28T02:26:32.835Z,-3.81
2023-02-28T02:29:08.645Z,-3.77
2023-02-28T02:31:53.800Z,-3.76
2023-02-28T02:35:05.350Z,-3.76
2023-02-28T02:37:34.726Z,-3.90
2023-02-28T02:40:16.116Z,-3.98
2023-02-28T02:43:10.386Z,-3.96
2023-02-28T02:45:39.241Z,-3.98
2023-02-28T02:48:08.489Z,-3.90
2023-02-28T02:50:39.694Z,-3.86
2023-02-28T02:53:08.245Z,-3.81
2023-02-28T02:55:38.534Z,-3.86
2023-02-28T02:58:09.355Z,-3.90
2023-02-28T03:00:42.914Z,-3.93
2023-02-28T03:03:11.327Z,-3.91
2023-02-28T03:05:48.037Z,-3.92
2023-02-28T03:08:15.708Z,-3.94
2023-02-28T03:10:44.740Z,-3.88
2023-02-28T03:13:17.235Z,-3.89
2023-02-28T03:16:14.198Z,-3.97
2023-02-28T03:19:09.113Z,-3.97
2023-02-28T03:21:50.074Z,-4.01
2023-02-28T03:24:20.781Z,-4.03
2023-02-28T03:26:54.239Z,-4.07
2023-02-28T03:29:36.489Z,-4.04
2023-02-28T03:32:22.630Z,-4.08
2023-02-28T03:34:56.997Z,-3.92
2023-02-28T03:37:25.436Z,-4.10
2023-02-28T03:40:00.133Z,-4.06
2023-02-28T03:42:29.173Z,-4.06
2023-02-28T03:45:01.971Z,-4.03
2023-02-28T03:48:02.569Z,-4.06
2023-02-28T03:50:36.406Z,-4.00
2023-02-28T03:53:08.817Z,-3.96
2023-02-28T03:55:55.630Z,-4.23
2023-02-28T03:58:37.829Z,-4.22
2023-02-28T04:01:09.478Z,-4.25
2023-02-28T04:03:39.926Z,-4.31
2023-02-28T04:06:09.121Z,-4.41
2023-02-28T04:08:35.831Z,-4.50
2023-02-28T04:11:10.070Z,-4.49
2023-02-28T04:13:36.830Z,-4.47
2023-02-28T04:16:18.694Z,-4.48
2023-02-28T04:18:48.456Z,-4.41
2023-02-28T04:21:15.299Z,-4.35
2023-02-28T04:23:42.420Z,-4.47
2023-02-28T04:26:09.243Z,-4.43
2023-02-28T04:28:35.971Z,-4.44
2023-02-28T04:31:05.178Z,-4.58
2023-02-28T04:33:33.145Z,-4.51
2023-02-28T04:36:05.178Z,-4.51
2023-02-28T04:38:36.638Z,-4.54
2023-02-28T04:41:03.552Z,-4.49
2023-02-28T04:43:30.891Z,-4.43
2023-02-28T04:45:59.067Z,-4.44
2023-02-28T04:48:26.759Z,-4.45
2023-02-28T04:50:53.477Z,-4.38
2023-02-28T04:53:20.704Z,-4.28
2023-02-28T04:55:47.530Z,-4.30
2023-02-28T04:58:15.406Z,-4.30
2023-02-28T05:00:42.169Z,-4.27
2023-02-28T05:03:08.895Z,-4.09
2023-02-28T05:05:35.615Z,-4.04
2023-02-28T05:08:02.435Z,-4.20
2023-02-28T05:10:29.288Z,-4.29
2023-02-28T05:12:55.992Z,-4.23
2023-02-28T05:15:22.758Z,-4.22
2023-02-28T05:17:49.514Z,-4.29
2023-02-28T05:20:16.545Z,-4.36
2023-02-28T05:22:44.321Z,-4.45
2023-02-28T05:25:18.484Z,-4.48
2023-02-28T05:27:45.504Z,-4.46
2023-02-28T05:30:12.595Z,-4.38
2023-02-28T05:32:40.150Z,-4.43
2023-02-28T05:35:07.312Z,-4.43
2023-02-28T05:37:34.029Z,-4.46
2023-02-28T05:40:00.907Z,-4.37
2023-02-28T05:42:27.695Z,-4.28
2023-02-28T05:44:54.262Z,-4.13
2023-02-28T05:47:20.935Z,-4.04
2023-02-28T05:49:47.488Z,-4.18
2023-02-28T05:52:14.221Z,-4.27
2023-02-28T05:54:41.111Z,-4.36
2023-02-28T05:57:15.476Z,-4.41
2023-02-28T05:59:49.476Z,-4.38
2023-02-28T06:02:18.316Z,-4.40
2023-02-28T06:04:45.531Z,-4.31
2023-02-28T06:07:12.675Z,-4.16
2023-02-28T06:09:39.619Z,-4.06
2023-02-28T06:12:08.242Z,-3.98
2023-02-28T06:14:35.593Z,-3.88
2023-02-28T06:17:03.237Z,-3.91
2023-02-28T06:19:31.205Z,-3.78
2023-02-28T06:21:58.397Z,-3.63
2023-02-28T06:24:26.054Z,-3.35
2023-02-28T06:26:52.652Z,-3.18
2023-02-28T06:29:19.457Z,-3.01
2023-02-28T06:31:47.420Z,-2.70
2023-02-28T06:34:14.950Z,-2.47
2023-02-28T06:36:42.691Z,-2.33
2023-02-28T06:39:10.240Z,-2.62
2023-02-28T06:41:53.728Z,-2.89
2023-02-28T06:44:22.372Z,-2.92
2023-02-28T06:46:49.119Z,-2.83
2023-02-28T06:49:16.619Z,-2.49
2023-02-28T06:51:46.381Z,-2.24
2023-02-28T06:54:13.574Z,-2.05
2023-02-28T06:56:40.887Z,-1.91
2023-02-28T06:59:07.831Z,-1.87
2023-02-28T07:01:34.729Z,-1.91
2023-02-28T07:04:01.457Z,-1.76
2023-02-28T07:06:28.883Z,-1.72
2023-02-28T07:08:56.166Z,-1.70
2023-02-28T07:11:26.771Z,-1.73
2023-02-28T07:13:57.437Z,-1.76
2023-02-28T07:16:25.488Z,-1.72
2023-02-28T07:18:55.947Z,-1.48
2023-02-28T07:21:23.008Z,-1.30
2023-02-28T07:23:49.784Z,-1.10
2023-02-28T07:26:18.494Z,-0.94
2023-02-28T07:28:47.273Z,-0.88
2023-02-28T07:31:15.440Z,-0.84
2023-02-28T07:33:42.752Z,-0.76
2023-02-28T07:36:16.482Z,-0.70
2023-02-28T07:38:47.750Z,-0.60
2023-02-28T07:41:16.778Z,-0.53
2023-02-28T07:43:43.936Z,-0.42
2023-02-28T07:46:13.838Z,-0.04
2023-02-28T07:48:40.662Z,0.23
2023-02-28T07:51:07.710Z,0.47
2023-02-28T07:53:34.796Z,0.81
2023-02-28T07:56:02.743Z,0.89
2023-02-28T07:58:30.385Z,1.08
2023-02-28T08:00:57.274Z,1.36
2023-02-28T08:03:25.304Z,1.68
2023-02-28T08:05:53.570Z,2.10
2023-02-28T08:08:20.402Z,2.13
2023-02-28T08:10:47.164Z,2.15
2023-02-28T08:13:14.028Z,2.31
2023-02-28T08:15:43.342Z,2.63
2023-02-28T08:18:10.148Z,2.84
2023-02-28T08:20:36.861Z,3.08
2023-02-28T08:23:03.659Z,3.24
2023-02-28T08:25:30.341Z,3.34
2023-02-28T08:27:57.077Z,3.60
2023-02-28T08:30:23.946Z,3.90
2023-02-28T08:32:50.751Z,4.12
2023-02-28T08:35:17.523Z,4.23
2023-02-28T08:37:44.252Z,4.23
2023-02-28T08:40:11.995Z,4.55
2023-02-28T08:42:38.729Z,4.53
2023-02-28T08:45:06.062Z,4.45
2023-02-28T08:47:32.994Z,4.38
2023-02-28T08:49:59.784Z,3.91
2023-02-28T08:52:26.499Z,4.77
2023-02-28T08:54:53.254Z,5.64
2023-02-28T08:57:19.923Z,5.44
2023-02-28T08:59:46.908Z,5.79
2023-02-28T09:02:15.398Z,6.06
2023-02-28T09:04:42.784Z,5.55
2023-02-28T09:07:09.504Z,5.37
2023-02-28T09:09:36.256Z,6.07
2023-02-28T09:12:03.238Z,5.67
2023-02-28T09:14:30.004Z,4.73
2023-02-28T09:16:56.662Z,5.70
2023-02-28T09:19:23.515Z,6.66
2023-02-28T09:21:50.244Z,5.80
2023-02-28T09:24:17.018Z,4.91
2023-02-28T09:26:56.407Z,6.02
2023-02-28T09:29:31.165Z,6.71
2023-02-28T09:31:59.953Z,7.05
2023-02-28T09:34:27.949Z,6.00
2023-02-28T09:36:56.081Z,6.91
2023-02-28T09:39:23.985Z,7.04
2023-02-28T09:41:55.452Z,6.69
2023-02-28T09:44:45.271Z,6.95
2023-02-28T09:47:20.240Z,6.94
2023-02-28T09:49:48.867Z,7.12
2023-02-28T09:52:20.440Z,7.61
2023-02-28T09:54:47.297Z,7.99
2023-02-28T09:57:34.322Z,6.70
2023-02-28T10:00:01.687Z,7.07
2023-02-28T10:02:52.407Z,7.33
2023-02-28T10:05:32.713Z,7.48
2023-02-28T10:08:11.657Z,7.13
2023-02-28T10:10:44.987Z,7.47
2023-02-28T10:13:32.942Z,7.67
2023-02-28T10:16:03.802Z,6.99
2023-02-28T10:18:47.335Z,6.97
2023-02-28T10:21:38.339Z,7.14
2023-02-28T10:24:21.340Z,7.69
2023-02-28T10:26:49.117Z,7.65
2023-02-28T10:29:16.280Z,8.00
2023-02-28T10:31:43.208Z,6.99
2023-02-28T10:34:13.678Z,8.18
2023-02-28T10:36:41.188Z,7.60
2023-02-28T10:39:44.307Z,8.33
2023-02-28T10:42:29.110Z,8.45
2023-02-28T10:45:17.082Z,7.86
2023-02-28T10:47:54.020Z,7.77
2023-02-28T10:50:33.976Z,8.39
2023-02-28T10:53:16.105Z,7.85
2023-02-28T10:55:43.059Z,8.26
2023-02-28T10:58:23.466Z,8.14
2023-02-28T11:00:50.451Z,8.15
2023-02-28T11:03:36.002Z,7.38
2023-02-28T11:06:12.606Z,7.67
2023-02-28T11:08:55.116Z,7.38
2023-02-28T11:11:24.775Z,7.15
2023-02-28T11:13:54.809Z,8.43
2023-02-28T11:16:22.226Z,7.78
2023-02-28T11:18:51.564Z,8.24
2023-02-28T11:21:25.671Z,7.91
2023-02-28T11:23:57.019Z,8.17
2023-02-28T11:26:41.780Z,7.73
2023-02-28T11:29:16.625Z,7.94
2023-02-28T11:31:43.472Z,8.31
2023-02-28T11:34:26.961Z,8.23
2023-02-28T11:36:55.654Z,9.16
2023-02-28T11:39:22.500Z,8.79
2023-02-28T11:42:14.123Z,9.16
2023-02-28T11:44:40.799Z,8.64
2023-02-28T11:47:16.890Z,8.04
2023-02-28T11:49:55.706Z,8.49
2023-02-28T11:52:41.140Z,9.32
2023-02-28T11:55:31.033Z,8.78
2023-02-28T11:58:02.239Z,7.92
2023-02-28T12:01:06.403Z,8.62
2023-02-28T12:04:07.669Z,8.09
2023-02-28T12:06:46.578Z,8.85
2023-02-28T12:09:35.710Z,9.36
2023-02-28T12:12:08.882Z,9.16
2023-02-28T12:14:55.644Z,8.42
2023-02-28T12:17:34.660Z,8.49
2023-02-28T12:20:30.626Z,8.41
2023-02-28T12:23:38.349Z,7.92
2023-02-28T12:26:17.244Z,7.34
2023-02-28T12:28:47.722Z,7.76
2023-02-28T12:31:46.884Z,8.26
2023-02-28T12:34:19.703Z,8.12
2023-02-28T12:36:46.898Z,8.06
2023-02-28T12:39:23.722Z,8.37
2023-02-28T12:42:08.957Z,8.54
2023-02-28T12:44:46.178Z,8.50
2023-02-28T12:47:18.370Z,8.77
2023-02-28T12:49:50.650Z,8.35
2023-02-28T12:52:23.089Z,8.24
2023-02-28T12:55:06.378Z,8.47
2023-02-28T12:57:42.927Z,8.04
2023-02-28T13:00:20.999Z,8.40
2023-02-28T13:03:16.300Z,8.24
2023-02-28T13:06:13.985Z,7.76
2023-02-28T13:09:19.011Z,8.05
2023-02-28T13:11:50.324Z,7.91
2023-02-28T13:14:25.366Z,8.27
2023-02-28T13:17:00.410Z,8.66
2023-02-28T13:19:30.214Z,8.32
2023-02-28T13:21:58.051Z,8.33
2023-02-28T13:24:39.693Z,7.77
2023-02-28T13:27:06.999Z,8.24
2023-02-28T13:29:39.064Z,8.18
2023-02-28T13:32:09.367Z,8.34
2023-02-28T13:34:37.873Z,8.37
2023-02-28T13:37:22.880Z,7.74
2023-02-28T13:39:57.583Z,7.44
2023-02-28T13:43:00.828Z,7.42
2023-02-28T13:45:30.982Z,8.45
2023-02-28T13:48:03.208Z,7.91
2023-02-28T13:50:33.467Z,7.68
2023-02-28T13:53:12.574Z,7.98
2023-02-28T13:55:58.031Z,7.82
2023-02-28T13:58:42.320Z,7.96
2023-02-28T14:01:18.155Z,7.48
2023-02-28T14:04:04.550Z,7.50
2023-02-28T14:06:35.714Z,7.43
2023-02-28T14:09:20.602Z,7.54
2023-02-28T14:11:47.844Z,7.58
2023-02-28T14:14:36.369Z,7.56
2023-02-28T14:17:05.189Z,7.55
2023-02-28T14:19:33.888Z,7.52
2023-02-28T14:22:00.557Z,7.56
2023-02-28T14:24:42.619Z,7.52
2023-02-28T14:27:15.622Z,7.57
2023-02-28T14:29:51.546Z,7.63
2023-02-28T14:32:31.186Z,7.44
2023-02-28T14:35:36.822Z,7.73
2023-02-28T14:38:08.258Z,7.59
2023-02-28T14:40:36.412Z,7.22
2023-02-28T14:43:05.835Z,7.54
2023-02-28T14:45:35.238Z,7.41
2023-02-28T14:48:02.709Z,7.39
2023-02-28T14:50:35.475Z,7.36
2023-02-28T14:53:03.029Z,7.54
2023-02-28T14:55:36.016Z,7.57
2023-02-28T14:58:07.467Z,7.55
2023-02-28T15:00:38.749Z,7.42
2023-02-28T15:03:36.617Z,7.30
2023-02-28T15:06:04.927Z,7.24
2023-02-28T15:08:36.878Z,7.33
2023-02-28T15:11:06.637Z,6.82
2023-02-28T15:13:53.533Z,6.72
2023-02-28T15:16:23.485Z,6.67
2023-02-28T15:18:54.291Z,7.08
2023-02-28T15:21:42.713Z,7.05
2023-02-28T15:24:17.864Z,6.81
2023-02-28T15:26:47.486Z,6.64
2023-02-28T15:29:17.254Z,6.57
2023-02-28T15:31:58.349Z,6.66
2023-02-28T15:34:40.565Z,6.45
2023-02-28T15:37:33.364Z,6.41
2023-02-28T15:40:25.590Z,6.33
2023-02-28T15:43:19.115Z,6.12
2023-02-28T15:45:48.592Z,6.04
2023-02-28T15:48:32.958Z,5.76
2023-02-28T15:51:10.176Z,5.72
2023-02-28T15:53:50.918Z,5.68
2023-02-28T15:56:20.502Z,5.74
2023-02-28T15:58:47.253Z,5.60
2023-02-28T16:01:33.229Z,5.62
2023-02-28T16:04:06.200Z,5.59
2023-02-28T16:06:46.354Z,5.44
2023-02-28T16:09:15.809Z,5.28
2023-02-28T16:11:54.186Z,5.32
2023-02-28T16:14:26.215Z,5.34
2023-02-28T16:16:55.314Z,5.16
2023-02-28T16:19:22.755Z,4.94
2023-02-28T16:21:50.077Z,4.87
2023-02-28T16:24:16.700Z,4.56
2023-02-28T16:26:47.438Z,4.64
2023-02-28T16:29:26.108Z,4.71
2023-02-28T16:31:54.523Z,4.67
2023-02-28T16:34:21.532Z,4.62
2023-02-28T16:36:49.559Z,4.34
2023-02-28T16:39:16.254Z,4.44
2023-02-28T16:41:46.486Z,4.24
2023-02-28T16:44:22.610Z,4.03
2023-02-28T16:46:49.406Z,4.11
2023-02-28T16:49:16.153Z,3.85
2023-02-28T16:51:42.875Z,3.92
2023-02-28T16:54:09.565Z,3.68
2023-02-28T16:56:36.308Z,3.56
2023-02-28T16:59:03.494Z,3.33
2023-02-28T17:01:30.731Z,3.41
2023-02-28T17:03:57.922Z,3.48
2023-02-28T17:06:29.859Z,3.44
2023-02-28T17:08:58.025Z,3.33
2023-02-28T17:11:25.435Z,3.32
2023-02-28T17:13:52.456Z,3.20
2023-02-28T17:16:27.145Z,3.24
2023-02-28T17:18:56.250Z,3.15
2023-02-28T17:21:22.995Z,3.15
2023-02-28T17:23:49.861Z,2.93
2023-02-28T17:26:21.352Z,2.38
2023-02-28T17:28:49.417Z,2.29
2023-02-28T17:31:16.469Z,2.21
2023-02-28T17:33:43.212Z,2.39
2023-02-28T17:36:24.188Z,2.44
2023-02-28T17:38:51.397Z,2.37
2023-02-28T17:41:18.192Z,2.13
2023-02-28T17:43:44.959Z,1.93
2023-02-28T17:46:21.702Z,1.72
2023-02-28T17:48:49.919Z,1.63
2023-02-28T17:51:18.119Z,1.49
2023-02-28T17:53:45.083Z,1.50
2023-02-28T17:56:17.453Z,1.48
2023-02-28T17:58:44.456Z,1.38
2023-02-28T18:01:11.978Z,1.40
2023-02-28T18:03:39.859Z,1.12
2023-02-28T18:06:08.327Z,1.17
2023-02-28T18:08:36.373Z,1.39
2023-02-28T18:11:03.111Z,1.35
2023-02-28T18:13:29.923Z,1.27
2023-02-28T18:15:56.665Z,1.23
2023-02-28T18:18:23.449Z,1.07
2023-02-28T18:20:50.931Z,1.10
2023-02-28T18:23:19.480Z,0.94
2023-02-28T18:25:46.180Z,0.96
2023-02-28T18:28:13.019Z,1.09
2023-02-28T18:30:39.777Z,1.06
2023-02-28T18:33:06.507Z,0.97
2023-02-28T18:35:36.185Z,0.85
2023-02-28T18:38:07.405Z,0.77
2023-02-28T18:40:36.780Z,0.85
2023-02-28T18:43:04.378Z,0.84
2023-02-28T18:45:31.371Z,0.85
2023-02-28T18:47:58.294Z,0.82
2023-02-28T18:50:25.033Z,0.76
2023-02-28T18:52:51.653Z,0.77
2023-02-28T18:55:19.220Z,0.82
2023-02-28T18:57:49.125Z,0.59
2023-02-28T19:00:22.595Z,0.59
2023-02-28T19:02:50.762Z,0.54
2023-02-28T19:05:18.014Z,0.41
2023-02-28T19:07:45.249Z,0.42
2023-02-28T19:10:12.699Z,0.19
2023-02-28T19:12:39.649Z,0.40
2023-02-28T19:15:07.411Z,0.29
2023-02-28T19:17:34.288Z,0.39
2023-02-28T19:20:00.912Z,0.15
2023-02-28T19:22:27.692Z,0.36
2023-02-28T19:24:54.332Z,0.28
2023-02-28T19:27:21.092Z,0.46
2023-02-28T19:29:49.794Z,0.47
2023-02-28T19:32:16.968Z,0.50
2023-02-28T19:34:43.758Z,0.54
2023-02-28T19:37:11.088Z,0.53
2023-02-28T19:39:44.496Z,0.31
2023-02-28T19:42:16.545Z,0.24
2023-02-28T19:44:43.808Z,0.24
2023-02-28T19:47:10.800Z,0.16
2023-02-28T19:49:37.536Z,-0.02
2023-02-28T19:52:05.004Z,-0.08
2023-02-28T19:54:36.120Z,0.06
2023-02-28T19:57:03.230Z,-0.08
2023-02-28T19:59:38.517Z,-0.07
2023-02-28T20:02:07.245Z,-0.05
2023-02-28T20:04:33.877Z,-0.09
2023-02-28T20:07:00.519Z,-0.06
2023-02-28T20:09:32.095Z,-0.12
2023-02-28T20:12:02.519Z,-0.01
2023-02-28T20:14:29.190Z,-0.08
2023-02-28T20:16:57.903Z,-0.07
2023-02-28T20:19:25.070Z,0.02
2023-02-28T20:21:51.730Z,0.09
2023-02-28T20:24:18.459Z,0.02
2023-02-28T20:26:45.129Z,-0.04
2023-02-28T20:29:12.233Z,-0.13
2023-02-28T20:31:38.900Z,-0.06
2023-02-28T20:34:05.684Z,-0.16
2023-02-28T20:36:32.618Z,-0.12
2023-02-28T20:39:00.418Z,-0.25
2023-02-28T20:41:27.540Z,-0.16
2023-02-28T20:43:58.503Z,-0.18
2023-02-28T20:46:26.292Z,-0.28
2023-02-28T20:48:53.318Z,-0.49
2023-02-28T20:51:20.554Z,-0.42
2023-02-28T20:53:47.549Z,-0.40
2023-02-28T20:56:16.542Z,-0.45
2023-02-28T20:58:45.096Z,-0.45
2023-02-28T21:01:17.518Z,-0.45
2023-02-28T21:03:48.971Z,-0.48
2023-02-28T21:06:17.375Z,-0.36
2023-02-28T21:08:44.136Z,-0.35
2023-02-28T21:11:14.949Z,-0.30
2023-02-28T21:13:42.881Z,-0.21
2023-02-28T21:16:13.184Z,-0.27
2023-02-28T21:18:39.992Z,-0.32
2023-02-28T21:21:12.476Z,-0.35
2023-02-28T21:23:39.139Z,-0.35
2023-02-28T21:26:10.983Z,-0.25
2023-02-28T21:28:38.760Z,-0.22
2023-02-28T21:31:08.628Z,-0.27
2023-02-28T21:33:35.868Z,-0.29
2023-02-28T21:36:08.722Z,-0.38
2023-02-28T21:38:36.887Z,-0.39
2023-02-28T21:41:13.760Z,-0.37
2023-02-28T21:43:41.409Z,-0.34
2023-02-28T21:46:11.444Z,-0.45
2023-02-28T21:48:39.207Z,-0.46
2023-02-28T21:51:09.162Z,-0.51
2023-02-28T21:53:37.847Z,-0.52
2023-02-28T21:56:06.354Z,-0.56
2023-02-28T21:58:33.212Z,-0.56
2023-02-28T22:01:07.417Z,-0.55
2023-02-28T22:03:34.605Z,-0.61
2023-02-28T22:06:01.475Z,-0.66
2023-02-28T22:08:28.246Z,-0.65
2023-02-28T22:10:54.834Z,-0.67
2023-02-28T22:13:21.502Z,-0.70
2023-02-28T22:15:48.625Z,-0.73
2023-02-28T22:18:15.257Z,-0.77
2023-02-28T22:20:41.852Z,-0.77
2023-02-28T22:23:08.652Z,-0.82
2023-02-28T22:25:37.626Z,-0.82
2023-02-28T22:28:04.414Z,-0.90
2023-02-28T22:30:31.313Z,-0.88
2023-02-28T22:32:57.951Z,-0.88
2023-02-28T22:35:24.501Z,-0.94
2023-02-28T22:37:51.094Z,-0.91
2023-02-28T22:40:17.893Z,-0.88
2023-02-28T22:42:44.563Z,-0.97
2023-02-28T22:45:11.717Z,-0.98
2023-02-28T22:47:38.661Z,-0.93
2023-02-28T22:50:06.033Z,-1.08
2023-02-28T22:52:32.580Z,-0.98
2023-02-28T22:54:59.444Z,-0.92
2023-02-28T22:57:26.023Z,-0.97
2023-02-28T22:59:52.616Z,-0.88
2023-02-28T23:02:19.219Z,-0.92
2023-02-28T23:04:45.859Z,-1.00
2023-02-28T23:07:14.144Z,-1.07
2023-02-28T23:09:40.792Z,-1.09
2023-02-28T23:12:08.056Z,-1.16
2023-02-28T23:14:34.683Z,-1.31
2023-02-28T23:17:01.280Z,-1.31
2023-02-28T23:19:30.470Z,-1.38
2023-02-28T23:21:59.447Z,-1.41
2023-02-28T23:24:28.033Z,-1.41
2023-02-28T23:26:56.419Z,-1.43
2023-02-28T23:29:25.102Z,-1.50
2023-02-28T23:31:52.013Z,-1.52
2023-02-28T23:34:26.184Z,-1.51
2023-02-28T23:36:54.285Z,-1.40
2023-02-28T23:39:21.859Z,-1.34
2023-02-28T23:41:48.795Z,-1.38
2023-02-28T23:44:18.888Z,-1.44
2023-02-28T23:46:47.624Z,-1.49
2023-02-28T23:49:15.480Z,-1.50
2023-02-28T23:51:42.480Z,-1.54
2023-02-28T23:54:09.128Z,-1.52
2023-02-28T23:56:35.727Z,-1.42
2023-02-28T23:59:02.293Z,-1.41
